Skip Navigation Links Skip Navigation Links

Current Weather

Peachtree City-Falcon Field, Atlanta

For information only: do not use for flight planning or navigation.
Latest weather
Observation time Tuesday, January 26, 2021 7:53 PM EST
Local time Tuesday, January 26, 2021 8:20 PM EST
Flight conditions Visual Meteorological Conditions
Winds
Wind speed calm
Visibility 10 mi.
Sky condition
Ceiling unlimited
Cloud layer scattered clouds 8,500 ft.
Temperature 57°F
Dewpoint 55°F
Altimeter 29.96 in.Hg
Derived measurements
Relative humidity 93%
Density altitude 839 ft.
Sea-level pressure 29.96 in.Hg
Remarks
Fully automated report.
Automated weather observing station with precipitation discriminator.
METAR KFFC 270053Z AUTO 00000KT 10SM SCT085 14/13 A2996 RMK AO2 SLP146 T01390128

Settings

Location code

InnerDrive.Weather 4.0.6770.0 Release CLR 4.0.30319.42000
Copyright ©2018 Inner Drive Technology. All rights reserved. Portions Copyright ©1986-2018 David Braverman.

Find weather

Site navigation


Skip Navigation Links

Place info

Page info

PayPal - The safer, easier way to pay online!

Return home.

Copyright ©2021 Inner Drive Technology. Purveyors of fine, hand-crafted computer software. Page printed 2021-01-27T01:20:58 UTC.